createdAt,value
2023-05-15T00:01:23.262Z,101112.22
2023-05-15T00:03:50.124Z,101105.63
2023-05-15T00:06:16.572Z,101103.00
2023-05-15T00:08:42.981Z,101066.63
2023-05-15T00:11:09.444Z,101097.97
2023-05-15T00:13:36.068Z,101085.88
2023-05-15T00:16:02.819Z,101089.25
2023-05-15T00:18:29.279Z,101064.16
2023-05-15T00:20:55.978Z,101049.94
2023-05-15T00:23:22.631Z,101079.47
2023-05-15T00:25:49.134Z,101076.38
2023-05-15T00:28:15.573Z,101086.22
2023-05-15T00:30:44.813Z,101079.50
2023-05-15T00:33:11.193Z,101085.16
2023-05-15T00:35:37.991Z,101065.22
2023-05-15T00:38:04.597Z,101071.53
2023-05-15T00:40:32.240Z,101084.63
2023-05-15T00:43:00.606Z,101071.41
2023-05-15T00:45:29.094Z,101078.88
2023-05-15T00:47:57.636Z,101081.84
2023-05-15T00:50:24.572Z,101075.13
2023-05-15T00:52:51.305Z,101070.88
2023-05-15T00:55:18.008Z,101013.81
2023-05-15T00:57:44.713Z,101069.47
2023-05-15T01:00:12.427Z,101066.94
2023-05-15T01:02:39.100Z,101061.50
2023-05-15T01:05:08.086Z,101043.91
2023-05-15T01:07:48.321Z,101037.31
2023-05-15T01:10:19.498Z,101063.91
2023-05-15T01:12:47.455Z,101044.19
2023-05-15T01:15:14.069Z,101061.09
2023-05-15T01:17:40.768Z,101039.56
2023-05-15T01:20:10.686Z,100987.69
2023-05-15T01:23:19.434Z,101051.78
2023-05-15T01:26:11.010Z,101018.09
2023-05-15T01:28:46.050Z,101038.72
2023-05-15T01:31:16.936Z,101056.03
2023-05-15T01:33:46.771Z,101041.00
2023-05-15T01:36:24.554Z,101050.25
2023-05-15T01:38:55.718Z,101055.06
2023-05-15T01:41:31.631Z,101046.91
2023-05-15T01:44:31.384Z,101046.63
2023-05-15T01:47:01.686Z,101042.16
2023-05-15T01:49:28.546Z,101040.31
2023-05-15T01:52:01.669Z,101044.66
2023-05-15T01:54:29.386Z,101016.97
2023-05-15T01:56:57.439Z,101042.00
2023-05-15T01:59:27.964Z,101038.63
2023-05-15T02:01:56.147Z,101035.53
2023-05-15T02:04:22.731Z,101043.69
2023-05-15T02:06:50.330Z,101029.34
2023-05-15T02:09:18.183Z,101036.22
2023-05-15T02:11:45.017Z,101005.16
2023-05-15T02:14:13.117Z,101010.63
2023-05-15T02:16:39.947Z,101043.94
2023-05-15T02:19:06.556Z,101002.34
2023-05-15T02:21:33.001Z,101034.69
2023-05-15T02:23:59.400Z,101031.31
2023-05-15T02:26:34.560Z,101027.78
2023-05-15T02:29:09.949Z,101033.25
2023-05-15T02:32:10.462Z,101035.09
2023-05-15T02:34:55.809Z,101028.19
2023-05-15T02:37:27.981Z,101019.78
2023-05-15T02:39:57.970Z,101029.88
2023-05-15T02:42:24.915Z,101003.03
2023-05-15T02:44:54.213Z,101005.56
2023-05-15T02:47:22.966Z,101024.69
2023-05-15T02:49:50.207Z,101024.22
2023-05-15T02:52:24.765Z,101021.28
2023-05-15T02:54:51.333Z,101017.22
2023-05-15T02:57:17.764Z,100985.00
2023-05-15T02:59:44.481Z,101009.06
2023-05-15T03:02:10.871Z,101022.66
2023-05-15T03:04:37.690Z,101009.00
2023-05-15T03:07:04.390Z,101010.84
2023-05-15T03:09:30.800Z,100995.22
2023-05-15T03:11:57.276Z,101004.25
2023-05-15T03:14:23.887Z,101003.66
2023-05-15T03:16:50.390Z,101012.25
2023-05-15T03:19:16.990Z,101011.53
2023-05-15T03:21:43.454Z,100960.59
2023-05-15T03:24:09.867Z,100975.56
2023-05-15T03:26:36.402Z,100968.91
2023-05-15T03:29:02.831Z,100996.34
2023-05-15T03:31:29.422Z,100995.63
2023-05-15T03:33:58.177Z,100994.22
2023-05-15T03:36:24.623Z,100938.19
2023-05-15T03:38:51.398Z,100980.81
2023-05-15T03:41:17.883Z,100996.03
2023-05-15T03:43:44.302Z,100969.84
2023-05-15T03:46:11.215Z,101002.47
2023-05-15T03:48:37.702Z,100991.78
2023-05-15T03:51:04.320Z,100992.75
2023-05-15T03:53:30.761Z,100984.66
2023-05-15T03:55:57.533Z,100992.41
2023-05-15T03:58:24.129Z,100960.31
2023-05-15T04:00:50.698Z,100964.69
2023-05-15T04:03:17.420Z,100984.09
2023-05-15T04:05:44.421Z,100987.47
2023-05-15T04:08:12.410Z,100975.84
2023-05-15T04:10:39.037Z,100934.88
2023-05-15T04:13:05.717Z,100963.63
2023-05-15T04:15:32.315Z,100976.16
2023-05-15T04:17:58.780Z,100977.72
2023-05-15T04:20:25.373Z,100982.59
2023-05-15T04:22:52.730Z,100966.47
2023-05-15T04:25:20.365Z,100975.75
2023-05-15T04:27:47.163Z,100977.19
2023-05-15T04:30:13.787Z,100942.72
2023-05-15T04:32:41.215Z,100952.72
2023-05-15T04:35:12.190Z,100975.09
2023-05-15T04:37:41.930Z,100973.13
2023-05-15T04:40:09.734Z,100973.41
2023-05-15T04:42:37.762Z,100972.84
2023-05-15T04:45:06.277Z,100933.50
2023-05-15T04:47:32.834Z,100970.16
2023-05-15T04:49:59.361Z,100966.81
2023-05-15T04:52:25.768Z,100956.13
2023-05-15T04:54:53.555Z,100950.06
2023-05-15T04:57:20.047Z,100950.34
2023-05-15T04:59:46.446Z,100947.81
2023-05-15T05:02:13.538Z,100914.22
2023-05-15T05:04:42.904Z,100961.38
2023-05-15T05:07:09.403Z,100953.94
2023-05-15T05:09:35.833Z,100965.84
2023-05-15T05:12:02.373Z,100966.81
2023-05-15T05:14:28.961Z,100966.25
2023-05-15T05:16:55.857Z,100964.25
2023-05-15T05:19:22.459Z,100970.09
2023-05-15T05:21:49.025Z,100961.31
2023-05-15T05:24:15.532Z,100938.22
2023-05-15T05:26:44.214Z,100966.66
2023-05-15T05:29:10.800Z,100964.63
2023-05-15T05:31:37.286Z,100977.34
2023-05-15T05:34:03.907Z,100936.63
2023-05-15T05:36:30.327Z,100964.72
2023-05-15T05:38:56.758Z,100923.41
2023-05-15T05:41:23.168Z,100971.38
2023-05-15T05:43:49.624Z,100926.13
2023-05-15T05:46:16.036Z,100957.53
2023-05-15T05:48:42.568Z,100951.25
2023-05-15T05:51:09.008Z,100911.66
2023-05-15T05:53:37.544Z,100953.59
2023-05-15T05:56:04.816Z,100936.72
2023-05-15T05:58:31.481Z,100929.09
2023-05-15T06:00:58.220Z,100959.53
2023-05-15T06:03:24.828Z,100958.53
2023-05-15T06:05:51.359Z,100939.41
2023-05-15T06:08:17.944Z,100914.69
2023-05-15T06:10:44.693Z,100927.59
2023-05-15T06:13:11.643Z,100916.16
2023-05-15T06:15:38.086Z,100945.34
2023-05-15T06:18:04.705Z,100940.41
2023-05-15T06:20:31.210Z,100938.28
2023-05-15T06:22:57.918Z,100904.47
2023-05-15T06:25:24.444Z,100942.97
2023-05-15T06:27:51.073Z,100941.31
2023-05-15T06:30:17.664Z,100938.63
2023-05-15T06:32:44.163Z,100942.50
2023-05-15T06:35:11.016Z,100937.13
2023-05-15T06:37:37.799Z,100944.13
2023-05-15T06:40:05.714Z,100903.38
2023-05-15T06:42:32.657Z,100943.97
2023-05-15T06:44:59.484Z,100934.75
2023-05-15T06:47:26.058Z,100934.47
2023-05-15T06:49:53.897Z,100923.50
2023-05-15T06:52:20.833Z,100933.78
2023-05-15T06:54:48.328Z,100932.88
2023-05-15T06:57:15.599Z,100899.72
2023-05-15T06:59:42.048Z,100915.31
2023-05-15T07:02:08.775Z,100927.59
2023-05-15T07:04:35.649Z,100883.06
2023-05-15T07:07:02.324Z,100891.81
2023-05-15T07:09:28.866Z,100918.53
2023-05-15T07:11:55.278Z,100917.22
2023-05-15T07:14:21.694Z,100889.34
2023-05-15T07:16:48.180Z,100894.78
2023-05-15T07:19:18.551Z,100913.63
2023-05-15T07:21:45.173Z,100895.38
2023-05-15T07:24:11.624Z,100885.38
2023-05-15T07:26:46.950Z,100908.88
2023-05-15T07:29:23.785Z,100904.31
2023-05-15T07:31:50.452Z,100880.13
2023-05-15T07:34:16.972Z,100862.41
2023-05-15T07:36:43.449Z,100868.88
2023-05-15T07:39:10.546Z,100893.75
2023-05-15T07:41:37.106Z,100860.34
2023-05-15T07:44:03.580Z,100872.44
2023-05-15T07:46:30.125Z,100901.03
2023-05-15T07:48:56.537Z,100870.19
2023-05-15T07:51:23.057Z,100883.94
2023-05-15T07:53:49.505Z,100893.31
2023-05-15T07:56:16.518Z,100875.16
2023-05-15T07:58:43.007Z,100872.88
2023-05-15T08:01:09.588Z,100870.00
2023-05-15T08:03:36.108Z,100863.50
2023-05-15T08:06:02.776Z,100879.34
2023-05-15T08:08:29.525Z,100874.75
2023-05-15T08:10:56.103Z,100864.94
2023-05-15T08:13:22.677Z,100866.97
2023-05-15T08:15:49.150Z,100879.88
2023-05-15T08:18:15.787Z,100853.59
2023-05-15T08:20:42.186Z,100876.69
2023-05-15T08:23:08.808Z,100879.41
2023-05-15T08:25:35.271Z,100871.88
2023-05-15T08:28:02.577Z,100871.00
2023-05-15T08:30:29.051Z,100857.00
2023-05-15T08:32:55.732Z,100850.31
2023-05-15T08:35:22.141Z,100848.16
2023-05-15T08:37:48.579Z,100854.16
2023-05-15T08:40:15.144Z,100854.56
2023-05-15T08:42:48.971Z,100851.00
2023-05-15T08:45:15.674Z,100836.16
2023-05-15T08:47:43.049Z,100847.00
2023-05-15T08:50:15.075Z,100847.31
2023-05-15T08:52:43.376Z,100839.19
2023-05-15T08:55:11.400Z,100849.13
2023-05-15T08:57:38.543Z,100837.41
2023-05-15T09:00:09.129Z,100856.16
2023-05-15T09:02:37.219Z,100835.25
2023-05-15T09:05:04.985Z,100824.50
2023-05-15T09:07:31.945Z,100833.69
2023-05-15T09:09:59.224Z,100846.50
2023-05-15T09:12:26.772Z,100834.19
2023-05-15T09:15:17.471Z,100844.75
2023-05-15T09:17:45.183Z,100841.66
2023-05-15T09:20:28.181Z,100833.13
2023-05-15T09:22:55.915Z,100830.00
2023-05-15T09:25:42.761Z,100834.53
2023-05-15T09:28:11.772Z,100828.31
2023-05-15T09:30:39.182Z,100836.44
2023-05-15T09:33:05.988Z,100804.00
2023-05-15T09:35:37.887Z,100827.13
2023-05-15T09:38:09.215Z,100818.13
2023-05-15T09:40:35.926Z,100828.50
2023-05-15T09:43:02.617Z,100822.13
2023-05-15T09:45:30.373Z,100815.50
2023-05-15T09:48:00.409Z,100812.03
2023-05-15T09:50:34.101Z,100792.34
2023-05-15T09:53:00.880Z,100789.22
2023-05-15T09:55:27.971Z,100820.81
2023-05-15T09:58:11.911Z,100789.63
2023-05-15T10:00:48.502Z,100814.50
2023-05-15T10:03:16.808Z,100789.03
2023-05-15T10:05:44.310Z,100809.56
2023-05-15T10:08:11.404Z,100807.25
2023-05-15T10:10:38.244Z,100795.59
2023-05-15T10:13:07.260Z,100800.09
2023-05-15T10:15:34.174Z,100762.50
2023-05-15T10:18:04.165Z,100785.94
2023-05-15T10:20:32.089Z,100798.78
2023-05-15T10:23:00.539Z,100799.81
2023-05-15T10:25:50.297Z,100801.13
2023-05-15T10:28:17.516Z,100791.47
2023-05-15T10:30:44.127Z,100786.69
2023-05-15T10:33:11.564Z,100798.56
2023-05-15T10:35:40.128Z,100781.28
2023-05-15T10:38:07.252Z,100773.88
2023-05-15T10:40:37.456Z,100781.59
2023-05-15T10:43:05.591Z,100784.69
2023-05-15T10:45:33.324Z,100784.19
2023-05-15T10:48:01.372Z,100784.00
2023-05-15T10:50:28.170Z,100761.53
2023-05-15T10:52:55.830Z,100779.63
2023-05-15T10:55:22.855Z,100767.47
2023-05-15T10:57:49.936Z,100729.88
2023-05-15T11:00:22.431Z,100766.28
2023-05-15T11:02:53.538Z,100766.34
2023-05-15T11:05:20.272Z,100766.09
2023-05-15T11:08:15.454Z,100763.31
2023-05-15T11:10:42.134Z,100760.22
2023-05-15T11:13:08.774Z,100745.91
2023-05-15T11:15:43.503Z,100755.13
2023-05-15T11:18:10.354Z,100746.94
2023-05-15T11:21:02.928Z,100740.94
2023-05-15T11:23:37.424Z,100739.50
2023-05-15T11:26:05.682Z,100735.16
2023-05-15T11:28:42.392Z,100730.78
2023-05-15T11:31:09.003Z,100738.44
2023-05-15T11:33:39.475Z,100728.13
2023-05-15T11:36:06.913Z,100740.72
2023-05-15T11:38:38.968Z,100688.88
2023-05-15T11:41:18.196Z,100720.00
2023-05-15T11:43:44.838Z,100714.72
2023-05-15T11:46:13.729Z,100732.56
2023-05-15T11:48:47.546Z,100730.31
2023-05-15T11:51:19.810Z,100737.63
2023-05-15T11:53:47.498Z,100729.13
2023-05-15T11:56:25.714Z,100718.47
2023-05-15T11:58:55.770Z,100723.59
2023-05-15T12:01:22.882Z,100721.69
2023-05-15T12:03:50.494Z,100698.03
2023-05-15T12:06:18.149Z,100722.41
2023-05-15T12:08:50.289Z,100717.34
2023-05-15T12:11:16.742Z,100720.94
2023-05-15T12:13:43.169Z,100729.03
2023-05-15T12:16:09.725Z,100729.03
2023-05-15T12:18:36.323Z,100735.56
2023-05-15T12:21:04.914Z,100724.09
2023-05-15T12:23:32.384Z,100722.91
2023-05-15T12:26:03.366Z,100705.03
2023-05-15T12:28:31.737Z,100726.28
2023-05-15T12:30:59.385Z,100727.69
2023-05-15T12:33:26.126Z,100727.03
2023-05-15T12:36:00.811Z,100722.53
2023-05-15T12:38:28.445Z,100720.19
2023-05-15T12:40:55.195Z,100686.41
2023-05-15T12:43:25.050Z,100685.19
2023-05-15T12:45:55.855Z,100714.03
2023-05-15T12:48:22.964Z,100687.72
2023-05-15T12:50:50.152Z,100698.50
2023-05-15T12:53:16.996Z,100693.06
2023-05-15T12:55:46.997Z,100694.81
2023-05-15T12:58:15.730Z,100708.59
2023-05-15T13:00:46.007Z,100703.75
2023-05-15T13:03:13.850Z,100688.41
2023-05-15T13:05:43.621Z,100718.44
2023-05-15T13:08:15.560Z,100721.88
2023-05-15T13:10:42.025Z,100724.09
2023-05-15T13:13:08.518Z,100727.59
2023-05-15T13:15:39.229Z,100717.66
2023-05-15T13:18:17.399Z,100730.44
2023-05-15T13:20:48.680Z,100677.59
2023-05-15T13:23:17.548Z,100711.44
2023-05-15T13:25:44.648Z,100711.25
2023-05-15T13:28:11.782Z,100703.28
2023-05-15T13:30:41.576Z,100707.16
2023-05-15T13:33:08.954Z,100714.28
2023-05-15T13:35:36.661Z,100720.03
2023-05-15T13:38:03.436Z,100729.50
2023-05-15T13:40:32.507Z,100706.94
2023-05-15T13:42:58.954Z,100719.88
2023-05-15T13:45:25.705Z,100723.66
2023-05-15T13:47:52.346Z,100723.22
2023-05-15T13:50:18.801Z,100724.41
2023-05-15T13:52:46.093Z,100734.03
2023-05-15T13:55:15.283Z,100724.75
2023-05-15T13:57:43.262Z,100728.94
2023-05-15T14:00:14.021Z,100734.25
2023-05-15T14:02:42.985Z,100702.06
2023-05-15T14:05:11.419Z,100723.66
2023-05-15T14:07:38.045Z,100721.41
2023-05-15T14:10:04.986Z,100687.84
2023-05-15T14:12:32.522Z,100721.34
2023-05-15T14:14:59.374Z,100723.63
2023-05-15T14:17:26.162Z,100729.53
2023-05-15T14:19:52.919Z,100729.38
2023-05-15T14:22:19.358Z,100733.66
2023-05-15T14:24:45.793Z,100746.16
2023-05-15T14:27:12.714Z,100731.72
2023-05-15T14:29:39.782Z,100747.38
2023-05-15T14:32:06.796Z,100697.25
2023-05-15T14:34:34.250Z,100754.88
2023-05-15T14:37:03.182Z,100754.94
2023-05-15T14:39:30.016Z,100753.47
2023-05-15T14:41:56.468Z,100755.59
2023-05-15T14:44:22.888Z,100737.94
2023-05-15T14:47:12.241Z,100754.75
2023-05-15T14:49:39.975Z,100748.31
2023-05-15T14:52:08.928Z,100751.03
2023-05-15T14:54:35.758Z,100747.03
2023-05-15T14:57:02.420Z,100745.94
2023-05-15T14:59:28.876Z,100744.84
2023-05-15T15:01:55.398Z,100728.56
2023-05-15T15:04:21.852Z,100739.66
2023-05-15T15:06:48.309Z,100751.16
2023-05-15T15:09:14.936Z,100720.91
2023-05-15T15:11:41.467Z,100726.88
2023-05-15T15:14:07.951Z,100743.25
2023-05-15T15:16:34.672Z,100746.69
2023-05-15T15:19:01.211Z,100746.69
2023-05-15T15:21:27.735Z,100745.03
2023-05-15T15:23:55.164Z,100745.97
2023-05-15T15:26:21.758Z,100750.00
2023-05-15T15:28:48.485Z,100755.22
2023-05-15T15:31:15.647Z,100714.53
2023-05-15T15:33:42.168Z,100754.47
2023-05-15T15:36:08.835Z,100753.81
2023-05-15T15:38:35.923Z,100736.38
2023-05-15T15:41:03.602Z,100715.03
2023-05-15T15:43:30.121Z,100748.16
2023-05-15T15:45:56.626Z,100715.72
2023-05-15T15:48:23.189Z,100743.09
2023-05-15T15:50:51.659Z,100739.84
2023-05-15T15:53:18.139Z,100735.56
2023-05-15T15:55:46.423Z,100705.00
2023-05-15T15:58:13.790Z,100755.97
2023-05-15T16:00:41.202Z,100740.19
2023-05-15T16:03:07.980Z,100750.66
2023-05-15T16:05:34.619Z,100705.25
2023-05-15T16:08:01.053Z,100736.94
2023-05-15T16:10:27.633Z,100764.06
2023-05-15T16:12:55.250Z,100754.72
2023-05-15T16:15:23.783Z,100751.59
2023-05-15T16:17:54.781Z,100762.91
2023-05-15T16:20:21.852Z,100775.19
2023-05-15T16:22:48.293Z,100751.66
2023-05-15T16:25:14.765Z,100763.34
2023-05-15T16:27:41.245Z,100763.34
2023-05-15T16:30:09.416Z,100760.41
2023-05-15T16:32:36.330Z,100721.22
2023-05-15T16:35:03.494Z,100756.69
2023-05-15T16:37:29.980Z,100768.78
2023-05-15T16:39:56.740Z,100788.16
2023-05-15T16:42:23.272Z,100786.88
2023-05-15T16:44:49.783Z,100767.06
2023-05-15T16:47:18.097Z,100778.09
2023-05-15T16:49:45.732Z,100763.91
2023-05-15T16:52:13.491Z,100776.59
2023-05-15T16:54:41.866Z,100778.63
2023-05-15T16:57:08.312Z,100768.75
2023-05-15T16:59:34.800Z,100771.88
2023-05-15T17:02:01.510Z,100763.56
2023-05-15T17:04:29.084Z,100785.22
2023-05-15T17:06:56.883Z,100784.63
2023-05-15T17:09:23.483Z,100787.75
2023-05-15T17:11:49.846Z,100768.59
2023-05-15T17:14:16.701Z,100789.06
2023-05-15T17:16:43.346Z,100799.34
2023-05-15T17:19:10.164Z,100805.41
2023-05-15T17:21:37.617Z,100803.38
2023-05-15T17:24:04.179Z,100798.78
2023-05-15T17:26:30.594Z,100801.91
2023-05-15T17:28:57.586Z,100815.25
2023-05-15T17:31:24.117Z,100811.50
2023-05-15T17:33:50.774Z,100811.94
2023-05-15T17:36:20.029Z,100824.50
2023-05-15T17:38:46.686Z,100795.91
2023-05-15T17:41:13.100Z,100824.91
2023-05-15T17:43:39.574Z,100819.03
2023-05-15T17:46:06.095Z,100804.78
2023-05-15T17:48:32.955Z,100841.72
2023-05-15T17:50:59.378Z,100845.22
2023-05-15T17:53:25.830Z,100846.63
2023-05-15T17:55:52.256Z,100851.19
2023-05-15T17:58:18.775Z,100857.16
2023-05-15T18:00:45.969Z,100860.25
2023-05-15T18:03:12.480Z,100852.66
2023-05-15T18:05:39.187Z,100843.91
2023-05-15T18:08:06.729Z,100870.44
2023-05-15T18:10:33.317Z,100866.78
2023-05-15T18:12:59.783Z,100835.16
2023-05-15T18:15:26.694Z,100818.81
2023-05-15T18:17:53.329Z,100893.09
2023-05-15T18:20:19.939Z,100884.09
2023-05-15T18:22:46.349Z,100869.16
2023-05-15T18:25:12.851Z,100882.19
2023-05-15T18:27:39.314Z,100882.25
2023-05-15T18:30:06.612Z,100885.28
2023-05-15T18:32:33.429Z,100858.69
2023-05-15T18:34:59.971Z,100883.47
2023-05-15T18:37:26.560Z,100896.69
2023-05-15T18:39:56.517Z,100852.84
2023-05-15T18:42:23.578Z,100847.59
2023-05-15T18:44:50.001Z,100897.19
2023-05-15T18:47:16.462Z,100893.56
2023-05-15T18:49:43.212Z,100905.38
2023-05-15T18:52:09.945Z,100878.22
2023-05-15T18:54:36.470Z,100928.44
2023-05-15T18:57:02.939Z,100923.94
2023-05-15T18:59:29.491Z,100933.50
2023-05-15T19:01:55.982Z,100859.28
2023-05-15T19:04:22.836Z,100943.06
2023-05-15T19:06:50.299Z,100923.75
2023-05-15T19:09:20.308Z,100937.84
2023-05-15T19:11:49.208Z,100950.94
2023-05-15T19:14:17.653Z,100920.97
2023-05-15T19:16:47.047Z,100953.94
2023-05-15T19:19:13.721Z,100941.97
2023-05-15T19:21:40.242Z,100960.22
2023-05-15T19:24:07.282Z,100967.44
2023-05-15T19:26:33.792Z,100969.25
2023-05-15T19:29:00.297Z,100957.28
2023-05-15T19:31:31.956Z,100973.91
2023-05-15T19:33:59.607Z,100973.03
2023-05-15T19:36:26.492Z,100964.56
2023-05-15T19:38:53.346Z,100981.72
2023-05-15T19:41:19.798Z,100973.97
2023-05-15T19:43:46.946Z,100949.66
2023-05-15T19:46:13.870Z,100977.09
2023-05-15T19:48:40.585Z,100991.00
2023-05-15T19:51:07.175Z,100990.31
2023-05-15T19:53:33.788Z,100999.69
2023-05-15T19:56:00.262Z,100992.78
2023-05-15T19:58:26.724Z,100987.69
2023-05-15T20:00:54.106Z,100996.75
2023-05-15T20:03:21.629Z,100957.84
2023-05-15T20:05:48.515Z,101000.03
2023-05-15T20:08:16.881Z,100999.00
2023-05-15T20:10:44.483Z,100989.66
2023-05-15T20:13:11.347Z,101005.81
2023-05-15T20:15:39.928Z,100985.13
2023-05-15T20:18:07.515Z,100994.84
2023-05-15T20:20:34.740Z,101008.59
2023-05-15T20:23:01.297Z,100972.06
2023-05-15T20:25:29.027Z,100960.13
2023-05-15T20:27:58.420Z,101003.00
2023-05-15T20:30:25.412Z,101000.63
2023-05-15T20:32:52.074Z,100992.03
2023-05-15T20:35:18.629Z,100990.50
2023-05-15T20:37:46.239Z,100972.47
2023-05-15T20:40:13.074Z,100948.19
2023-05-15T20:42:39.813Z,100999.69
2023-05-15T20:45:08.714Z,100968.44
2023-05-15T20:47:35.884Z,100972.22
2023-05-15T20:50:02.666Z,100990.34
2023-05-15T20:52:29.244Z,101011.69
2023-05-15T20:54:55.680Z,100984.59
2023-05-15T20:57:22.241Z,101005.81
2023-05-15T20:59:48.603Z,101013.69
2023-05-15T21:02:15.045Z,101008.97
2023-05-15T21:04:41.710Z,100997.16
2023-05-15T21:07:08.650Z,101009.56
2023-05-15T21:09:35.262Z,100959.59
2023-05-15T21:12:04.078Z,101008.56
2023-05-15T21:14:30.665Z,101014.63
2023-05-15T21:16:57.194Z,101007.56
2023-05-15T21:19:23.999Z,101009.56
2023-05-15T21:21:50.782Z,101016.59
2023-05-15T21:24:17.245Z,101012.53
2023-05-15T21:26:43.653Z,101013.09
2023-05-15T21:29:10.184Z,101007.63
2023-05-15T21:31:36.712Z,101015.50
2023-05-15T21:34:03.229Z,101021.41
2023-05-15T21:36:29.616Z,101019.03
2023-05-15T21:38:56.008Z,101023.19
2023-05-15T21:41:22.730Z,101040.16
2023-05-15T21:43:49.149Z,101030.28
2023-05-15T21:46:15.602Z,101034.41
2023-05-15T21:48:42.029Z,101041.59
2023-05-15T21:51:08.637Z,101046.81
2023-05-15T21:53:35.290Z,101048.63
2023-05-15T21:56:02.580Z,101060.34
2023-05-15T21:58:29.262Z,101054.16
2023-05-15T22:00:55.892Z,101048.28
2023-05-15T22:03:22.667Z,101048.97
2023-05-15T22:05:51.464Z,101055.97
2023-05-15T22:08:18.244Z,101048.28
2023-05-15T22:10:44.902Z,101053.47
2023-05-15T22:13:11.677Z,101043.13
2023-05-15T22:15:38.367Z,101047.56
2023-05-15T22:18:08.106Z,101059.28
2023-05-15T22:20:34.594Z,101054.91
2023-05-15T22:23:01.055Z,101049.44
2023-05-15T22:25:27.559Z,101048.47
2023-05-15T22:27:54.075Z,101051.97
2023-05-15T22:30:21.007Z,101027.19
2023-05-15T22:32:47.477Z,101016.66
2023-05-15T22:35:13.927Z,101033.31
2023-05-15T22:37:41.971Z,101056.56
2023-05-15T22:40:10.478Z,101058.00
2023-05-15T22:42:37.129Z,101064.88
2023-05-15T22:45:04.775Z,101070.94
2023-05-15T22:47:32.020Z,101074.44
2023-05-15T22:49:58.642Z,101064.59
2023-05-15T22:52:25.902Z,101061.22
2023-05-15T22:54:52.319Z,101052.34
2023-05-15T22:57:18.754Z,101042.25
2023-05-15T22:59:45.780Z,101041.41
2023-05-15T23:02:12.328Z,101050.66
2023-05-15T23:04:39.154Z,101020.94
2023-05-15T23:07:05.846Z,101071.88
2023-05-15T23:09:32.480Z,101044.22
2023-05-15T23:11:58.922Z,101010.94
2023-05-15T23:14:25.796Z,101068.03
2023-05-15T23:16:52.511Z,101064.38
2023-05-15T23:19:19.070Z,101044.16
2023-05-15T23:21:46.153Z,101053.81
2023-05-15T23:24:12.741Z,101033.06
2023-05-15T23:26:39.180Z,101057.66
2023-05-15T23:29:05.680Z,101032.91
2023-05-15T23:31:33.536Z,101058.78
2023-05-15T23:33:59.993Z,101064.09
2023-05-15T23:36:26.475Z,101048.78
2023-05-15T23:38:53.021Z,101054.97
2023-05-15T23:41:19.539Z,101058.88
2023-05-15T23:43:45.989Z,101054.38
2023-05-15T23:46:12.525Z,101060.28
2023-05-15T23:48:39.175Z,101045.63
2023-05-15T23:51:05.945Z,101064.63
2023-05-15T23:53:32.405Z,101058.28
2023-05-15T23:55:58.846Z,101035.06
2023-05-15T23:58:25.484Z,101003.16
